createdAt,value
2022-08-22T00:03:07.844Z,11.00
2022-08-22T00:03:08.536Z,9.77
2022-08-22T00:15:42.091Z,10.27
2022-08-22T00:18:48.584Z,9.38
2022-08-22T00:50:07.223Z,7.47
2022-08-22T00:53:42.798Z,9.27
2022-08-22T01:14:53.402Z,6.70
2022-08-22T01:19:03.799Z,8.70
2022-08-22T01:23:11.082Z,5.93
2022-08-22T02:11:12.835Z,13.93
2022-08-22T02:39:38.336Z,6.78
2022-08-22T02:42:27.085Z,6.82
2022-08-22T02:44:57.131Z,6.63
2022-08-22T02:47:49.307Z,11.52
2022-08-22T02:50:36.431Z,7.25
2022-08-22T02:53:49.413Z,10.38
2022-08-22T02:56:54.305Z,9.15
2022-08-22T02:59:27.325Z,7.70
2022-08-22T03:01:55.812Z,8.20
2022-08-22T03:04:31.444Z,7.18
2022-08-22T03:07:11.554Z,8.60
2022-08-22T03:09:57.689Z,11.07
2022-08-22T03:12:33.605Z,8.20
2022-08-22T03:15:19.445Z,9.30
2022-08-22T03:17:57.806Z,7.22
2022-08-22T03:20:55.368Z,9.80
2022-08-22T03:23:39.023Z,9.40
2022-08-22T03:26:20.741Z,9.95
2022-08-22T03:29:01.718Z,13.00
2022-08-22T03:31:30.952Z,8.52
2022-08-22T03:34:23.004Z,12.95
2022-08-22T03:37:15.933Z,8.32
2022-08-22T03:39:43.196Z,7.25
2022-08-22T03:42:16.070Z,14.70
2022-08-22T03:44:51.416Z,10.55
2022-08-22T03:47:33.416Z,12.80
2022-08-22T03:50:27.958Z,9.05
2022-08-22T03:53:19.209Z,31.42
2022-08-22T03:56:29.210Z,14.50
2022-08-22T03:59:55.603Z,7.75
2022-08-22T04:02:56.717Z,15.50
2022-08-22T04:06:12.619Z,15.60
2022-08-22T04:09:35.508Z,12.77
2022-08-22T04:12:45.868Z,16.85
2022-08-22T04:15:56.521Z,14.13
2022-08-22T04:24:05.315Z,9.20
2022-08-22T04:27:13.383Z,12.50
2022-08-22T04:29:49.193Z,14.65
2022-08-22T04:32:47.661Z,11.48
2022-08-22T04:35:30.528Z,9.88
2022-08-22T04:38:00.865Z,9.65
2022-08-22T04:40:34.972Z,12.60
2022-08-22T04:43:15.657Z,9.43
2022-08-22T04:45:56.763Z,11.82
2022-08-22T04:48:35.176Z,10.73
2022-08-22T04:51:13.130Z,12.55
2022-08-22T04:53:50.509Z,15.55
2022-08-22T04:56:47.308Z,17.40
2022-08-22T04:59:20.463Z,12.13
2022-08-22T05:01:55.688Z,16.42
2022-08-22T05:04:32.658Z,15.02
2022-08-22T05:07:07.290Z,15.20
2022-08-22T05:09:38.220Z,13.35
2022-08-22T05:12:15.722Z,17.20
2022-08-22T05:14:46.625Z,18.65
2022-08-22T05:17:17.291Z,16.92
2022-08-22T05:19:50.586Z,18.15
2022-08-22T05:22:21.790Z,15.02
2022-08-22T05:24:51.845Z,16.08
2022-08-22T05:27:25.802Z,14.55
2022-08-22T05:29:55.867Z,20.90
2022-08-22T05:32:29.147Z,15.88
2022-08-22T05:35:00.241Z,11.30
2022-08-22T05:37:39.306Z,29.52
2022-08-22T05:40:07.749Z,15.48
2022-08-22T05:42:37.539Z,14.18
2022-08-22T05:45:07.022Z,19.85
2022-08-22T05:48:04.301Z,11.23
2022-08-22T05:50:53.689Z,10.63
2022-08-22T05:53:30.712Z,19.48
2022-08-22T05:55:57.697Z,16.80
2022-08-22T05:58:41.516Z,11.18
2022-08-22T06:01:20.694Z,12.27
2022-08-22T06:03:56.753Z,8.68
2022-08-22T06:06:24.841Z,14.98
2022-08-22T06:09:19.830Z,9.15
2022-08-22T06:12:03.319Z,8.63
2022-08-22T06:15:00.894Z,10.45
2022-08-22T06:17:36.247Z,9.32
2022-08-22T06:20:08.717Z,7.20
2022-08-22T06:22:40.286Z,6.85
2022-08-22T06:25:22.577Z,3.55
2022-08-22T06:30:17.661Z,5.80
2022-08-22T06:32:59.852Z,8.25
2022-08-22T06:36:02.481Z,6.25
2022-08-22T06:38:34.983Z,3.90
2022-08-22T06:41:06.188Z,7.25
2022-08-22T06:43:38.748Z,8.02
2022-08-22T06:46:06.627Z,7.68
2022-08-22T06:48:34.796Z,9.27
2022-08-22T06:51:02.748Z,5.50
2022-08-22T06:53:48.035Z,4.70
2022-08-22T06:56:26.090Z,3.78
2022-08-22T06:58:56.867Z,6.40
2022-08-22T07:01:58.262Z,6.25
2022-08-22T07:04:26.599Z,6.68
2022-08-22T07:06:55.475Z,3.38
2022-08-22T07:09:32.046Z,6.75
2022-08-22T07:12:02.075Z,7.57
2022-08-22T07:14:32.317Z,10.30
2022-08-22T07:17:04.583Z,7.15
2022-08-22T07:19:33.580Z,4.40
2022-08-22T07:22:13.844Z,4.15
2022-08-22T07:24:47.133Z,5.25
2022-08-22T07:27:37.520Z,6.63
2022-08-22T07:30:11.373Z,11.77
2022-08-22T07:33:26.524Z,10.98
2022-08-22T07:36:01.598Z,11.50
2022-08-22T07:38:43.011Z,7.70
2022-08-22T07:41:16.147Z,11.10
2022-08-22T07:43:45.596Z,6.35
2022-08-22T07:46:21.325Z,13.52
2022-08-22T07:49:08.138Z,13.07
2022-08-22T07:51:47.780Z,12.45
2022-08-22T07:54:19.340Z,9.18
2022-08-22T07:57:04.298Z,8.30
2022-08-22T07:59:34.398Z,15.05
2022-08-22T08:02:02.213Z,10.55
2022-08-22T08:04:39.497Z,13.10
2022-08-22T08:07:09.157Z,4.25
2022-08-22T08:09:41.483Z,8.07
2022-08-22T08:12:10.899Z,5.43
2022-08-22T08:14:41.113Z,4.68
2022-08-22T08:17:11.923Z,4.78
2022-08-22T08:19:40.236Z,7.53
2022-08-22T08:22:07.695Z,8.05
2022-08-22T08:24:40.207Z,3.58
2022-08-22T08:27:32.523Z,8.05
2022-08-22T08:30:15.101Z,6.93
2022-08-22T08:32:43.617Z,4.43
2022-08-22T08:35:20.255Z,6.68
2022-08-22T08:37:51.318Z,4.43
2022-08-22T08:40:59.843Z,5.63
2022-08-22T08:43:45.121Z,6.53
2022-08-22T08:46:55.305Z,4.53
2022-08-22T08:53:00.315Z,5.45
2022-08-22T08:55:37.694Z,4.07
2022-08-22T08:58:32.958Z,5.78
2022-08-22T09:01:17.018Z,2.88
2022-08-22T09:04:17.016Z,1.83
2022-08-22T09:07:04.793Z,7.20
2022-08-22T09:09:43.933Z,6.88
2022-08-22T09:12:35.152Z,4.47
2022-08-22T09:15:20.361Z,3.10
2022-08-22T09:18:08.754Z,1.33
2022-08-22T09:20:55.816Z,5.15
2022-08-22T09:23:54.454Z,8.23
2022-08-22T09:26:30.052Z,4.63
2022-08-22T09:29:28.943Z,2.72
2022-08-22T09:32:16.179Z,6.40
2022-08-22T09:35:00.345Z,5.47
2022-08-22T09:37:52.910Z,3.20
2022-08-22T09:40:30.321Z,6.93
2022-08-22T09:43:11.169Z,10.98
2022-08-22T09:45:45.558Z,2.50
2022-08-22T09:48:29.287Z,3.58
2022-08-22T09:51:31.261Z,6.13
2022-08-22T09:54:14.440Z,1.98
2022-08-22T09:56:56.766Z,4.18
2022-08-22T09:59:31.698Z,6.05
2022-08-22T10:02:27.620Z,8.77
2022-08-22T10:05:40.477Z,3.58
2022-08-22T10:08:28.672Z,4.70
2022-08-22T10:11:13.924Z,7.38
2022-08-22T10:14:02.747Z,13.20
2022-08-22T10:16:42.695Z,11.05
2022-08-22T10:19:16.489Z,6.80
2022-08-22T10:22:06.737Z,6.47
2022-08-22T10:24:44.047Z,6.95
2022-08-22T10:27:28.954Z,7.88
2022-08-22T10:30:20.635Z,3.65
2022-08-22T10:32:55.123Z,8.40
2022-08-22T10:35:27.226Z,6.45
2022-08-22T10:37:58.665Z,5.82
2022-08-22T10:41:00.703Z,3.97
2022-08-22T10:43:46.273Z,3.22
2022-08-22T10:46:17.115Z,13.10
2022-08-22T10:48:49.102Z,7.60
2022-08-22T10:51:35.581Z,4.93
2022-08-22T10:54:09.283Z,3.10
2022-08-22T10:56:52.599Z,3.05
2022-08-22T10:59:38.490Z,3.72
2022-08-22T11:02:28.329Z,8.57
2022-08-22T11:05:13.995Z,3.47
2022-08-22T11:08:09.887Z,5.03
2022-08-22T11:10:55.056Z,8.75
2022-08-22T11:13:43.380Z,5.70
2022-08-22T11:16:26.854Z,2.97
2022-08-22T11:19:15.327Z,3.55
2022-08-22T11:21:57.487Z,4.30
2022-08-22T11:24:35.226Z,4.53
2022-08-22T11:27:21.090Z,6.22
2022-08-22T11:30:07.517Z,5.18
2022-08-22T11:33:01.411Z,3.47
2022-08-22T11:35:37.428Z,4.03
2022-08-22T11:38:28.062Z,1.92
2022-08-22T11:41:09.466Z,6.10
2022-08-22T11:43:49.851Z,2.63
2022-08-22T11:46:32.863Z,6.65
2022-08-22T11:49:34.059Z,4.30
2022-08-22T11:52:10.111Z,4.53
2022-08-22T11:54:42.354Z,5.38
2022-08-22T12:00:03.694Z,7.15
2022-08-22T12:03:09.388Z,3.25
2022-08-22T12:05:51.566Z,4.43
2022-08-22T12:08:33.849Z,3.03
2022-08-22T12:11:19.388Z,7.40
2022-08-22T12:14:02.380Z,2.95
2022-08-22T12:16:45.081Z,2.05
2022-08-22T12:19:27.349Z,3.35
2022-08-22T12:22:37.892Z,5.13
2022-08-22T12:25:23.153Z,3.42
2022-08-22T12:28:10.359Z,4.97
2022-08-22T12:30:48.419Z,3.25
2022-08-22T12:33:42.832Z,3.97
2022-08-22T12:36:42.127Z,2.85
2022-08-22T12:39:30.166Z,3.17
2022-08-22T12:42:19.533Z,5.43
2022-08-22T12:45:05.071Z,2.78
2022-08-22T12:47:42.297Z,7.13
2022-08-22T12:50:23.873Z,2.22
2022-08-22T12:53:02.408Z,12.95
2022-08-22T12:56:06.862Z,6.13
2022-08-22T12:58:58.662Z,5.60
2022-08-22T13:01:33.748Z,1.88
2022-08-22T13:04:05.098Z,2.20
2022-08-22T13:06:35.130Z,1.95
2022-08-22T13:09:11.539Z,6.75
2022-08-22T13:11:40.586Z,4.30
2022-08-22T13:14:09.451Z,1.73
2022-08-22T13:16:50.978Z,4.10
2022-08-22T13:19:22.268Z,2.35
2022-08-22T13:22:00.365Z,4.97
2022-08-22T13:24:52.667Z,2.00
2022-08-22T13:27:25.861Z,2.28
2022-08-22T13:30:08.144Z,1.38
2022-08-22T13:32:47.562Z,7.65
2022-08-22T13:35:27.144Z,4.45
2022-08-22T13:38:05.042Z,1.42
2022-08-22T13:40:33.243Z,5.80
2022-08-22T13:43:07.703Z,2.25
2022-08-22T13:45:36.970Z,1.88
2022-08-22T13:48:14.407Z,8.90
2022-08-22T13:51:08.620Z,6.20
2022-08-22T13:53:49.390Z,2.30
2022-08-22T13:56:47.163Z,3.05
2022-08-22T13:59:40.370Z,5.30
2022-08-22T14:02:18.179Z,7.70
2022-08-22T14:04:45.972Z,4.00
2022-08-22T14:07:33.926Z,5.28
2022-08-22T14:10:15.315Z,14.98
2022-08-22T14:13:05.060Z,14.73
2022-08-22T14:15:44.761Z,5.63
2022-08-22T14:18:18.642Z,4.15
2022-08-22T14:20:47.651Z,4.40
2022-08-22T14:23:29.230Z,3.45
2022-08-22T14:25:57.261Z,3.08
2022-08-22T14:28:27.878Z,3.13
2022-08-22T14:31:07.423Z,2.47
2022-08-22T14:33:39.945Z,1.33
2022-08-22T14:36:30.572Z,5.47
2022-08-22T14:39:02.680Z,1.90
2022-08-22T14:41:52.346Z,1.30
2022-08-22T14:44:25.894Z,2.92
2022-08-22T14:47:04.266Z,8.63
2022-08-22T14:49:52.539Z,5.18
2022-08-22T14:52:33.574Z,1.83
2022-08-22T14:55:26.038Z,2.60
2022-08-22T14:57:57.389Z,5.95
2022-08-22T15:00:33.590Z,3.22
2022-08-22T15:03:20.013Z,11.63
2022-08-22T15:05:51.749Z,4.18
2022-08-22T15:08:27.386Z,4.60
2022-08-22T15:11:09.110Z,2.85
2022-08-22T15:13:41.506Z,2.13
2022-08-22T15:16:21.755Z,2.65
2022-08-22T15:18:51.570Z,3.42
2022-08-22T15:21:32.743Z,5.22
2022-08-22T15:24:04.283Z,3.72
2022-08-22T15:26:41.227Z,6.35
2022-08-22T15:29:17.479Z,4.85
2022-08-22T15:31:46.592Z,3.05
2022-08-22T15:34:47.464Z,5.15
2022-08-22T15:37:19.291Z,9.07
2022-08-22T15:40:13.997Z,1.20
2022-08-22T15:42:51.041Z,2.03
2022-08-22T15:45:30.001Z,3.28
2022-08-22T15:47:59.790Z,6.55
2022-08-22T15:50:55.227Z,11.65
2022-08-22T15:53:25.213Z,2.65
2022-08-22T15:56:07.176Z,1.98
2022-08-22T15:58:39.783Z,1.60
2022-08-22T16:01:19.983Z,2.78
2022-08-22T16:03:58.780Z,1.75
2022-08-22T16:06:46.688Z,5.60
2022-08-22T16:09:30.138Z,2.63
2022-08-22T16:11:57.922Z,2.08
2022-08-22T16:14:49.798Z,1.40
2022-08-22T16:17:28.849Z,3.90
2022-08-22T16:20:10.013Z,2.10
2022-08-22T16:22:58.734Z,3.25
2022-08-22T16:25:50.176Z,3.65
2022-08-22T16:28:57.729Z,4.10
2022-08-22T16:31:29.406Z,2.72
2022-08-22T16:33:59.656Z,5.85
2022-08-22T16:36:40.680Z,5.38
2022-08-22T16:39:12.032Z,6.38
2022-08-22T16:41:42.223Z,1.23
2022-08-22T16:44:30.143Z,2.78
2022-08-22T16:47:14.013Z,3.00
2022-08-22T16:49:56.662Z,1.83
2022-08-22T16:52:23.875Z,1.27
2022-08-22T16:54:55.863Z,4.07
2022-08-22T16:58:05.348Z,3.30
2022-08-22T17:00:38.847Z,2.15
2022-08-22T17:06:00.736Z,3.25
2022-08-22T17:08:44.798Z,6.90
2022-08-22T17:11:45.736Z,2.30
2022-08-22T17:14:20.680Z,8.50
2022-08-22T17:17:05.110Z,3.05
2022-08-22T17:19:53.553Z,9.35
2022-08-22T17:22:44.944Z,4.38
2022-08-22T17:25:49.562Z,4.53
2022-08-22T17:28:39.940Z,3.42
2022-08-22T17:31:25.544Z,6.10
2022-08-22T17:34:01.724Z,3.58
2022-08-22T17:36:44.801Z,2.97
2022-08-22T17:39:39.416Z,8.30
2022-08-22T17:42:22.191Z,1.90
2022-08-22T17:45:11.198Z,4.25
2022-08-22T17:47:58.735Z,6.60
2022-08-22T17:50:32.703Z,10.98
2022-08-22T17:53:03.835Z,7.68
2022-08-22T17:55:34.629Z,4.13
2022-08-22T17:58:13.077Z,5.60
2022-08-22T18:01:11.324Z,5.80
2022-08-22T18:03:45.715Z,3.65
2022-08-22T18:06:23.476Z,7.78
2022-08-22T18:09:15.426Z,5.03
2022-08-22T18:11:52.596Z,11.80
2022-08-22T18:14:27.646Z,4.38
2022-08-22T18:16:56.062Z,9.90
2022-08-22T18:19:46.788Z,11.88
2022-08-22T18:22:25.888Z,5.80
2022-08-22T18:25:11.578Z,7.40
2022-08-22T18:27:48.955Z,2.33
2022-08-22T18:30:20.551Z,2.38
2022-08-22T18:33:09.625Z,6.20
2022-08-22T18:35:39.387Z,5.28
2022-08-22T18:38:33.900Z,2.50
2022-08-22T18:41:29.215Z,7.63
2022-08-22T18:43:59.302Z,8.50
2022-08-22T18:46:38.179Z,6.90
2022-08-22T18:49:15.629Z,7.95
2022-08-22T18:51:43.423Z,5.43
2022-08-22T18:54:13.759Z,9.32
2022-08-22T18:56:45.610Z,5.80
2022-08-22T18:59:28.971Z,6.60
2022-08-22T19:04:55.770Z,8.30
2022-08-22T19:07:57.879Z,4.72
2022-08-22T19:10:39.425Z,11.95
2022-08-22T19:13:09.384Z,21.00
2022-08-22T19:16:15.436Z,10.10
2022-08-22T19:18:45.034Z,15.25
2022-08-22T19:21:37.745Z,9.50
2022-08-22T19:24:29.375Z,10.27
2022-08-22T19:27:11.391Z,8.77
2022-08-22T19:29:38.168Z,4.53
2022-08-22T19:32:12.980Z,6.10
2022-08-22T19:34:46.761Z,11.43
2022-08-22T19:37:32.947Z,17.23
2022-08-22T19:40:09.660Z,15.38
2022-08-22T19:42:39.696Z,15.23
2022-08-22T19:45:09.850Z,16.90
2022-08-22T19:47:39.847Z,11.73
2022-08-22T19:50:24.192Z,10.00
2022-08-22T19:52:56.872Z,14.00
2022-08-22T19:55:39.120Z,9.73
2022-08-22T19:58:18.712Z,7.22
2022-08-22T20:01:20.960Z,6.03
2022-08-22T20:03:53.745Z,12.93
2022-08-22T20:06:40.771Z,9.52
2022-08-22T20:09:26.307Z,11.73
2022-08-22T20:11:59.370Z,11.70
2022-08-22T20:14:35.157Z,9.98
2022-08-22T20:17:05.191Z,14.13
2022-08-22T20:25:43.653Z,4.90
2022-08-22T20:28:08.567Z,22.42
2022-08-22T20:30:42.228Z,13.50
2022-08-22T20:33:38.300Z,19.08
2022-08-22T20:36:27.899Z,17.33
2022-08-22T20:39:07.496Z,7.75
2022-08-22T20:41:40.489Z,9.57
2022-08-22T20:44:34.743Z,9.32
2022-08-22T20:47:07.272Z,8.27
2022-08-22T20:49:43.529Z,10.80
2022-08-22T20:52:19.554Z,9.27
2022-08-22T20:55:08.851Z,16.10
2022-08-22T20:57:45.293Z,18.60
2022-08-22T21:00:15.755Z,23.48
2022-08-22T21:02:48.259Z,13.10
2022-08-22T21:05:18.371Z,8.83
2022-08-22T21:07:48.117Z,12.80
2022-08-22T21:10:49.306Z,14.60
2022-08-22T21:13:24.124Z,15.15
2022-08-22T21:15:56.299Z,14.60
2022-08-22T21:18:36.392Z,22.10
2022-08-22T21:21:22.868Z,24.45
2022-08-22T21:23:52.148Z,14.10
2022-08-22T21:26:29.529Z,13.00
2022-08-22T21:29:32.964Z,15.15
2022-08-22T21:32:11.636Z,15.30
2022-08-22T21:34:44.372Z,14.45
2022-08-22T21:37:17.427Z,13.40
2022-08-22T21:39:47.211Z,11.50
2022-08-22T21:42:32.970Z,15.13
2022-08-22T21:45:03.675Z,13.13
2022-08-22T21:47:33.632Z,14.20
2022-08-22T21:50:12.524Z,20.88
2022-08-22T21:52:45.192Z,13.75
2022-08-22T21:55:34.870Z,19.90
2022-08-22T21:58:10.122Z,26.40
2022-08-22T22:00:48.923Z,19.38
2022-08-22T22:03:18.935Z,15.75
2022-08-22T22:05:46.121Z,15.00
2022-08-22T22:08:13.317Z,9.82
2022-08-22T22:10:41.894Z,17.05
2022-08-22T22:13:09.006Z,14.77
2022-08-22T22:15:45.142Z,14.05
2022-08-22T22:18:17.549Z,16.83
2022-08-22T22:20:46.607Z,14.77
2022-08-22T22:23:13.960Z,19.00
2022-08-22T22:25:42.603Z,13.95
2022-08-22T22:28:31.265Z,13.77
2022-08-22T22:30:58.358Z,12.80
2022-08-22T22:33:29.476Z,14.23
2022-08-22T22:35:59.952Z,13.52
2022-08-22T22:38:27.055Z,17.20
2022-08-22T22:40:54.295Z,16.13
2022-08-22T22:43:21.390Z,9.82
2022-08-22T22:45:48.265Z,12.13
2022-08-22T22:48:24.595Z,9.48
2022-08-22T22:50:52.862Z,10.93
2022-08-22T22:53:21.472Z,16.45
2022-08-22T22:56:06.005Z,17.73
2022-08-22T22:58:33.622Z,14.98
2022-08-22T23:01:18.153Z,9.75
2022-08-22T23:03:45.627Z,11.48
2022-08-22T23:06:15.316Z,12.35
2022-08-22T23:08:42.559Z,20.27
2022-08-22T23:11:16.648Z,15.00
2022-08-22T23:13:43.623Z,14.27
2022-08-22T23:16:13.429Z,15.60
2022-08-22T23:18:41.262Z,14.43
2022-08-22T23:21:14.088Z,13.15
2022-08-22T23:23:42.610Z,12.68
2022-08-22T23:26:10.371Z,20.45
2022-08-22T23:28:37.890Z,11.25
2022-08-22T23:31:54.758Z,20.75
2022-08-22T23:34:47.144Z,16.65
2022-08-22T23:37:20.237Z,13.17
2022-08-22T23:40:09.519Z,22.65
2022-08-22T23:42:36.702Z,14.20
2022-08-22T23:45:04.088Z,16.23
2022-08-22T23:47:31.042Z,13.70
2022-08-22T23:49:58.049Z,13.70
2022-08-22T23:52:26.311Z,15.35
2022-08-22T23:54:55.524Z,12.35
2022-08-22T23:57:26.568Z,16.95
2022-08-22T23:59:58.445Z,13.13
